sensor_id;sensor_type;location;lat;lon;timestamp;temperature;humidity
24402;DHT22;12539;48.808;11.292;2023-06-14T00:02:02;17.10;56.60
24402;DHT22;12539;48.808;11.292;2023-06-14T00:04:28;17.10;56.40
24402;DHT22;12539;48.808;11.292;2023-06-14T00:06:54;17.10;56.80
24402;DHT22;12539;48.808;11.292;2023-06-14T00:09:22;17.10;56.70
24402;DHT22;12539;48.808;11.292;2023-06-14T00:11:47;17.10;56.40
24402;DHT22;12539;48.808;11.292;2023-06-14T00:14:13;17.00;55.90
24402;DHT22;12539;48.808;11.292;2023-06-14T00:16:39;17.00;56.70
24402;DHT22;12539;48.808;11.292;2023-06-14T00:19:08;16.90;56.70
24402;DHT22;12539;48.808;11.292;2023-06-14T00:21:36;16.80;56.40
24402;DHT22;12539;48.808;11.292;2023-06-14T00:24:02;16.90;56.80
24402;DHT22;12539;48.808;11.292;2023-06-14T00:26:27;16.80;56.70
24402;DHT22;12539;48.808;11.292;2023-06-14T00:28:53;16.80;56.80
24402;DHT22;12539;48.808;11.292;2023-06-14T00:31:19;16.70;57.00
24402;DHT22;12539;48.808;11.292;2023-06-14T00:33:44;16.70;57.60
24402;DHT22;12539;48.808;11.292;2023-06-14T00:36:10;16.60;58.00
24402;DHT22;12539;48.808;11.292;2023-06-14T00:38:35;16.60;57.60
24402;DHT22;12539;48.808;11.292;2023-06-14T00:41:01;16.60;57.70
24402;DHT22;12539;48.808;11.292;2023-06-14T00:43:27;16.50;57.90
24402;DHT22;12539;48.808;11.292;2023-06-14T00:45:52;16.50;57.70
24402;DHT22;12539;48.808;11.292;2023-06-14T00:48:18;16.50;57.80
24402;DHT22;12539;48.808;11.292;2023-06-14T00:50:44;16.50;58.00
24402;DHT22;12539;48.808;11.292;2023-06-14T00:53:11;16.50;57.90
24402;DHT22;12539;48.808;11.292;2023-06-14T00:55:37;16.40;58.10
24402;DHT22;12539;48.808;11.292;2023-06-14T00:58:03;16.50;57.90
24402;DHT22;12539;48.808;11.292;2023-06-14T01:00:28;16.50;58.00
24402;DHT22;12539;48.808;11.292;2023-06-14T01:02:54;16.40;57.80
24402;DHT22;12539;48.808;11.292;2023-06-14T01:05:20;16.40;58.20
24402;DHT22;12539;48.808;11.292;2023-06-14T01:15:15;16.50;58.70
24402;DHT22;12539;48.808;11.292;2023-06-14T01:17:41;16.50;58.50
24402;DHT22;12539;48.808;11.292;2023-06-14T01:20:12;16.50;58.90
24402;DHT22;12539;48.808;11.292;2023-06-14T01:22:48;16.50;59.00
24402;DHT22;12539;48.808;11.292;2023-06-14T01:25:14;16.60;59.00
24402;DHT22;12539;48.808;11.292;2023-06-14T01:27:41;16.60;58.70
24402;DHT22;12539;48.808;11.292;2023-06-14T01:30:07;16.50;58.50
24402;DHT22;12539;48.808;11.292;2023-06-14T01:32:35;16.50;58.60
24402;DHT22;12539;48.808;11.292;2023-06-14T01:35:01;16.40;58.80
24402;DHT22;12539;48.808;11.292;2023-06-14T01:37:26;16.40;58.80
24402;DHT22;12539;48.808;11.292;2023-06-14T01:39:52;16.40;58.70
24402;DHT22;12539;48.808;11.292;2023-06-14T01:42:18;16.30;59.10
24402;DHT22;12539;48.808;11.292;2023-06-14T01:44:44;16.30;59.50
24402;DHT22;12539;48.808;11.292;2023-06-14T01:47:10;16.30;59.10
24402;DHT22;12539;48.808;11.292;2023-06-14T01:49:36;16.20;59.50
24402;DHT22;12539;48.808;11.292;2023-06-14T01:52:03;16.20;59.30
24402;DHT22;12539;48.808;11.292;2023-06-14T01:54:29;16.10;59.80
24402;DHT22;12539;48.808;11.292;2023-06-14T01:56:56;16.10;60.50
24402;DHT22;12539;48.808;11.292;2023-06-14T01:59:22;16.10;60.60
24402;DHT22;12539;48.808;11.292;2023-06-14T02:01:47;16.10;61.30
24402;DHT22;12539;48.808;11.292;2023-06-14T02:04:13;16.10;60.90
24402;DHT22;12539;48.808;11.292;2023-06-14T02:06:38;16.10;60.50
24402;DHT22;12539;48.808;11.292;2023-06-14T02:09:04;16.10;60.30
24402;DHT22;12539;48.808;11.292;2023-06-14T02:11:29;16.00;60.60
24402;DHT22;12539;48.808;11.292;2023-06-14T02:13:55;16.00;60.80
24402;DHT22;12539;48.808;11.292;2023-06-14T02:16:21;16.00;61.60
24402;DHT22;12539;48.808;11.292;2023-06-14T02:18:47;15.90;61.40
24402;DHT22;12539;48.808;11.292;2023-06-14T02:21:13;15.90;61.50
24402;DHT22;12539;48.808;11.292;2023-06-14T02:23:39;16.00;62.10
24402;DHT22;12539;48.808;11.292;2023-06-14T02:26:05;16.00;62.50
24402;DHT22;12539;48.808;11.292;2023-06-14T02:28:30;16.00;62.10
24402;DHT22;12539;48.808;11.292;2023-06-14T02:30:56;16.10;62.10
24402;DHT22;12539;48.808;11.292;2023-06-14T02:33:21;16.10;62.00
24402;DHT22;12539;48.808;11.292;2023-06-14T02:35:47;16.10;62.30
24402;DHT22;12539;48.808;11.292;2023-06-14T02:38:13;16.10;62.00
24402;DHT22;12539;48.808;11.292;2023-06-14T02:40:38;16.10;61.80
24402;DHT22;12539;48.808;11.292;2023-06-14T02:43:04;16.10;62.00
24402;DHT22;12539;48.808;11.292;2023-06-14T02:45:30;16.10;61.80
24402;DHT22;12539;48.808;11.292;2023-06-14T02:47:55;16.10;62.00
24402;DHT22;12539;48.808;11.292;2023-06-14T02:50:21;16.10;61.60
24402;DHT22;12539;48.808;11.292;2023-06-14T02:52:47;16.00;61.10
24402;DHT22;12539;48.808;11.292;2023-06-14T02:55:12;15.90;61.90
24402;DHT22;12539;48.808;11.292;2023-06-14T02:57:38;15.80;62.30
24402;DHT22;12539;48.808;11.292;2023-06-14T03:00:04;15.70;62.80
24402;DHT22;12539;48.808;11.292;2023-06-14T03:02:30;15.70;63.20
24402;DHT22;12539;48.808;11.292;2023-06-14T03:04:56;15.70;63.30
24402;DHT22;12539;48.808;11.292;2023-06-14T03:07:21;15.70;63.40
24402;DHT22;12539;48.808;11.292;2023-06-14T03:09:48;15.70;63.20
24402;DHT22;12539;48.808;11.292;2023-06-14T03:12:14;15.70;63.90
24402;DHT22;12539;48.808;11.292;2023-06-14T03:14:40;15.70;64.10
24402;DHT22;12539;48.808;11.292;2023-06-14T03:17:07;15.70;64.20
24402;DHT22;12539;48.808;11.292;2023-06-14T03:19:33;15.60;64.20
24402;DHT22;12539;48.808;11.292;2023-06-14T03:21:59;15.60;63.80
24402;DHT22;12539;48.808;11.292;2023-06-14T03:24:24;15.60;64.00
24402;DHT22;12539;48.808;11.292;2023-06-14T03:26:52;15.60;63.70
24402;DHT22;12539;48.808;11.292;2023-06-14T03:29:18;15.60;64.30
24402;DHT22;12539;48.808;11.292;2023-06-14T03:32:17;15.60;64.80
24402;DHT22;12539;48.808;11.292;2023-06-14T03:34:35;15.60;64.70
24402;DHT22;12539;48.808;11.292;2023-06-14T03:37:03;15.60;64.60
24402;DHT22;12539;48.808;11.292;2023-06-14T03:39:29;15.60;64.80
24402;DHT22;12539;48.808;11.292;2023-06-14T03:41:54;15.60;64.80
24402;DHT22;12539;48.808;11.292;2023-06-14T03:44:20;15.60;64.40
24402;DHT22;12539;48.808;11.292;2023-06-14T03:46:46;15.60;64.80
24402;DHT22;12539;48.808;11.292;2023-06-14T03:49:12;15.60;64.30
24402;DHT22;12539;48.808;11.292;2023-06-14T03:51:37;15.50;65.10
24402;DHT22;12539;48.808;11.292;2023-06-14T03:54:03;15.50;65.10
24402;DHT22;12539;48.808;11.292;2023-06-14T03:56:28;15.60;65.70
24402;DHT22;12539;48.808;11.292;2023-06-14T03:58:54;15.70;65.60
24402;DHT22;12539;48.808;11.292;2023-06-14T04:01:20;15.70;65.80
24402;DHT22;12539;48.808;11.292;2023-06-14T04:03:46;15.70;65.30
24402;DHT22;12539;48.808;11.292;2023-06-14T04:06:11;15.70;64.80
24402;DHT22;12539;48.808;11.292;2023-06-14T04:08:37;15.70;65.00
24402;DHT22;12539;48.808;11.292;2023-06-14T04:11:05;15.70;64.90
24402;DHT22;12539;48.808;11.292;2023-06-14T04:13:30;15.70;65.00
24402;DHT22;12539;48.808;11.292;2023-06-14T04:15:56;15.70;65.20
24402;DHT22;12539;48.808;11.292;2023-06-14T04:18:22;15.70;65.80
24402;DHT22;12539;48.808;11.292;2023-06-14T04:20:49;15.70;65.40
24402;DHT22;12539;48.808;11.292;2023-06-14T04:23:16;15.70;65.20
24402;DHT22;12539;48.808;11.292;2023-06-14T04:25:43;15.70;65.10
24402;DHT22;12539;48.808;11.292;2023-06-14T04:28:11;15.70;65.30
24402;DHT22;12539;48.808;11.292;2023-06-14T04:30:39;15.70;65.50
24402;DHT22;12539;48.808;11.292;2023-06-14T04:33:05;15.70;65.30
24402;DHT22;12539;48.808;11.292;2023-06-14T04:35:31;15.70;65.80
24402;DHT22;12539;48.808;11.292;2023-06-14T04:37:57;15.80;65.70
24402;DHT22;12539;48.808;11.292;2023-06-14T04:40:23;15.80;65.70
24402;DHT22;12539;48.808;11.292;2023-06-14T04:42:49;15.90;65.80
24402;DHT22;12539;48.808;11.292;2023-06-14T04:45:16;15.90;65.90
24402;DHT22;12539;48.808;11.292;2023-06-14T04:47:42;16.00;66.60
24402;DHT22;12539;48.808;11.292;2023-06-14T04:50:09;16.10;66.40
24402;DHT22;12539;48.808;11.292;2023-06-14T04:52:36;16.20;66.40
24402;DHT22;12539;48.808;11.292;2023-06-14T04:55:02;16.30;66.80
24402;DHT22;12539;48.808;11.292;2023-06-14T04:57:28;16.40;66.80
24402;DHT22;12539;48.808;11.292;2023-06-14T04:59:54;16.50;68.00
24402;DHT22;12539;48.808;11.292;2023-06-14T05:02:24;16.60;68.60
24402;DHT22;12539;48.808;11.292;2023-06-14T05:04:50;16.60;69.40
24402;DHT22;12539;48.808;11.292;2023-06-14T05:07:16;16.70;69.60
24402;DHT22;12539;48.808;11.292;2023-06-14T05:09:41;16.80;69.90
24402;DHT22;12539;48.808;11.292;2023-06-14T05:12:07;16.90;69.70
24402;DHT22;12539;48.808;11.292;2023-06-14T05:14:33;17.00;69.70
24402;DHT22;12539;48.808;11.292;2023-06-14T05:16:59;17.10;69.20
24402;DHT22;12539;48.808;11.292;2023-06-14T05:19:24;17.10;68.60
24402;DHT22;12539;48.808;11.292;2023-06-14T05:21:50;17.20;68.90
24402;DHT22;12539;48.808;11.292;2023-06-14T05:24:16;17.20;68.20
24402;DHT22;12539;48.808;11.292;2023-06-14T05:26:45;17.30;67.80
24402;DHT22;12539;48.808;11.292;2023-06-14T05:29:11;17.40;67.50
24402;DHT22;12539;48.808;11.292;2023-06-14T05:31:36;17.50;67.50
24402;DHT22;12539;48.808;11.292;2023-06-14T05:34:03;17.60;67.50
24402;DHT22;12539;48.808;11.292;2023-06-14T05:36:28;17.70;67.20
24402;DHT22;12539;48.808;11.292;2023-06-14T05:38:54;17.80;66.90
24402;DHT22;12539;48.808;11.292;2023-06-14T05:41:28;18.00;66.20
24402;DHT22;12539;48.808;11.292;2023-06-14T05:43:54;18.10;65.90
24402;DHT22;12539;48.808;11.292;2023-06-14T05:46:19;18.20;65.30
24402;DHT22;12539;48.808;11.292;2023-06-14T05:48:48;18.40;65.80
24402;DHT22;12539;48.808;11.292;2023-06-14T05:51:13;18.90;65.20
24402;DHT22;12539;48.808;11.292;2023-06-14T05:53:39;19.80;64.70
24402;DHT22;12539;48.808;11.292;2023-06-14T05:56:05;21.40;62.10
24402;DHT22;12539;48.808;11.292;2023-06-14T05:58:31;23.40;58.00
24402;DHT22;12539;48.808;11.292;2023-06-14T06:00:56;25.30;53.70
24402;DHT22;12539;48.808;11.292;2023-06-14T06:03:23;27.10;50.90
24402;DHT22;12539;48.808;11.292;2023-06-14T06:05:48;28.50;47.40
24402;DHT22;12539;48.808;11.292;2023-06-14T06:08:14;29.70;44.90
24402;DHT22;12539;48.808;11.292;2023-06-14T06:10:39;30.50;41.40
24402;DHT22;12539;48.808;11.292;2023-06-14T06:13:05;31.40;38.00
24402;DHT22;12539;48.808;11.292;2023-06-14T06:15:30;32.20;38.30
24402;DHT22;12539;48.808;11.292;2023-06-14T06:17:56;32.90;36.40
24402;DHT22;12539;48.808;11.292;2023-06-14T06:20:22;33.20;34.60
24402;DHT22;12539;48.808;11.292;2023-06-14T06:22:53;33.80;34.10
24402;DHT22;12539;48.808;11.292;2023-06-14T06:25:19;34.30;33.40
24402;DHT22;12539;48.808;11.292;2023-06-14T06:27:44;34.70;31.30
24402;DHT22;12539;48.808;11.292;2023-06-14T06:30:10;35.00;30.40
24402;DHT22;12539;48.808;11.292;2023-06-14T06:32:36;35.40;30.10
24402;DHT22;12539;48.808;11.292;2023-06-14T06:35:01;35.70;29.50
24402;DHT22;12539;48.808;11.292;2023-06-14T06:37:27;35.90;27.70
24402;DHT22;12539;48.808;11.292;2023-06-14T06:39:52;36.00;27.60
24402;DHT22;12539;48.808;11.292;2023-06-14T06:42:18;36.20;26.80
24402;DHT22;12539;48.808;11.292;2023-06-14T06:44:43;36.50;27.50
24402;DHT22;12539;48.808;11.292;2023-06-14T06:47:09;36.80;26.50
24402;DHT22;12539;48.808;11.292;2023-06-14T06:49:36;37.00;25.70
24402;DHT22;12539;48.808;11.292;2023-06-14T06:52:03;36.90;25.10
24402;DHT22;12539;48.808;11.292;2023-06-14T06:54:29;37.10;24.80
24402;DHT22;12539;48.808;11.292;2023-06-14T06:56:54;37.20;24.20
24402;DHT22;12539;48.808;11.292;2023-06-14T06:59:20;37.20;24.30
24402;DHT22;12539;48.808;11.292;2023-06-14T07:01:46;37.30;24.80
24402;DHT22;12539;48.808;11.292;2023-06-14T07:04:12;37.60;24.30
24402;DHT22;12539;48.808;11.292;2023-06-14T07:06:38;37.50;23.40
24402;DHT22;12539;48.808;11.292;2023-06-14T07:09:03;37.50;23.40
24402;DHT22;12539;48.808;11.292;2023-06-14T07:11:30;37.30;22.90
24402;DHT22;12539;48.808;11.292;2023-06-14T07:13:56;37.00;23.10
24402;DHT22;12539;48.808;11.292;2023-06-14T07:16:21;36.00;23.40
24402;DHT22;12539;48.808;11.292;2023-06-14T07:18:47;34.40;25.00
24402;DHT22;12539;48.808;11.292;2023-06-14T07:21:12;32.20;26.60
24402;DHT22;12539;48.808;11.292;2023-06-14T07:23:38;30.40;28.50
24402;DHT22;12539;48.808;11.292;2023-06-14T07:26:03;28.90;30.60
24402;DHT22;12539;48.808;11.292;2023-06-14T07:28:29;27.80;32.70
24402;DHT22;12539;48.808;11.292;2023-06-14T07:30:54;26.90;34.00
24402;DHT22;12539;48.808;11.292;2023-06-14T07:33:20;26.30;34.80
24402;DHT22;12539;48.808;11.292;2023-06-14T07:35:45;25.80;35.60
24402;DHT22;12539;48.808;11.292;2023-06-14T07:38:11;25.30;36.70
24402;DHT22;12539;48.808;11.292;2023-06-14T07:40:36;24.90;38.10
24402;DHT22;12539;48.808;11.292;2023-06-14T07:43:02;24.60;38.90
24402;DHT22;12539;48.808;11.292;2023-06-14T07:45:27;24.30;39.20
24402;DHT22;12539;48.808;11.292;2023-06-14T07:47:53;24.10;40.30
24402;DHT22;12539;48.808;11.292;2023-06-14T07:50:18;24.00;40.30
24402;DHT22;12539;48.808;11.292;2023-06-14T07:52:45;24.10;41.00
24402;DHT22;12539;48.808;11.292;2023-06-14T07:55:10;24.20;40.80
24402;DHT22;12539;48.808;11.292;2023-06-14T07:57:36;24.30;40.90
24402;DHT22;12539;48.808;11.292;2023-06-14T08:00:02;24.50;40.40
24402;DHT22;12539;48.808;11.292;2023-06-14T08:02:29;24.50;39.80
24402;DHT22;12539;48.808;11.292;2023-06-14T08:04:54;24.50;39.70
24402;DHT22;12539;48.808;11.292;2023-06-14T08:07:20;24.60;39.40
24402;DHT22;12539;48.808;11.292;2023-06-14T08:09:46;24.60;39.60
24402;DHT22;12539;48.808;11.292;2023-06-14T08:12:11;24.70;39.90
24402;DHT22;12539;48.808;11.292;2023-06-14T08:14:39;24.80;39.70
24402;DHT22;12539;48.808;11.292;2023-06-14T08:17:04;25.00;39.80
24402;DHT22;12539;48.808;11.292;2023-06-14T08:19:30;25.10;39.70
24402;DHT22;12539;48.808;11.292;2023-06-14T08:21:56;25.20;39.70
24402;DHT22;12539;48.808;11.292;2023-06-14T08:24:22;25.20;39.60
24402;DHT22;12539;48.808;11.292;2023-06-14T08:26:52;25.10;39.80
24402;DHT22;12539;48.808;11.292;2023-06-14T08:29:18;25.00;39.50
24402;DHT22;12539;48.808;11.292;2023-06-14T08:31:43;24.80;40.30
24402;DHT22;12539;48.808;11.292;2023-06-14T08:34:09;24.50;40.10
24402;DHT22;12539;48.808;11.292;2023-06-14T08:36:35;24.30;41.20
24402;DHT22;12539;48.808;11.292;2023-06-14T08:39:01;24.00;41.60
24402;DHT22;12539;48.808;11.292;2023-06-14T08:41:26;23.90;42.20
24402;DHT22;12539;48.808;11.292;2023-06-14T08:43:54;23.80;42.40
24402;DHT22;12539;48.808;11.292;2023-06-14T08:46:20;23.70;42.00
24402;DHT22;12539;48.808;11.292;2023-06-14T08:48:48;23.60;42.20
24402;DHT22;12539;48.808;11.292;2023-06-14T08:53:59;23.60;42.60
24402;DHT22;12539;48.808;11.292;2023-06-14T08:56:30;23.60;43.10
24402;DHT22;12539;48.808;11.292;2023-06-14T08:58:56;23.60;42.90
24402;DHT22;12539;48.808;11.292;2023-06-14T09:01:22;23.60;42.80
24402;DHT22;12539;48.808;11.292;2023-06-14T09:03:48;23.50;42.60
24402;DHT22;12539;48.808;11.292;2023-06-14T09:06:14;23.50;43.20
24402;DHT22;12539;48.808;11.292;2023-06-14T09:08:44;23.50;43.50
24402;DHT22;12539;48.808;11.292;2023-06-14T09:11:10;23.40;43.10
24402;DHT22;12539;48.808;11.292;2023-06-14T09:13:36;23.30;42.90
24402;DHT22;12539;48.808;11.292;2023-06-14T09:16:02;23.20;42.00
24402;DHT22;12539;48.808;11.292;2023-06-14T09:18:35;23.10;42.40
24402;DHT22;12539;48.808;11.292;2023-06-14T09:21:00;23.10;43.20
24402;DHT22;12539;48.808;11.292;2023-06-14T09:23:26;23.00;42.20
24402;DHT22;12539;48.808;11.292;2023-06-14T09:25:51;23.00;42.80
24402;DHT22;12539;48.808;11.292;2023-06-14T09:28:17;22.90;43.00
24402;DHT22;12539;48.808;11.292;2023-06-14T09:30:42;22.90;42.60
24402;DHT22;12539;48.808;11.292;2023-06-14T09:33:08;22.90;42.40
24402;DHT22;12539;48.808;11.292;2023-06-14T09:35:34;22.90;43.10
24402;DHT22;12539;48.808;11.292;2023-06-14T09:37:59;22.80;43.30
24402;DHT22;12539;48.808;11.292;2023-06-14T09:40:26;22.90;41.90
24402;DHT22;12539;48.808;11.292;2023-06-14T09:42:51;22.90;42.70
24402;DHT22;12539;48.808;11.292;2023-06-14T09:45:17;22.90;42.70
24402;DHT22;12539;48.808;11.292;2023-06-14T09:47:49;22.90;43.20
24402;DHT22;12539;48.808;11.292;2023-06-14T09:50:15;22.90;42.40
24402;DHT22;12539;48.808;11.292;2023-06-14T09:52:41;23.00;41.60
24402;DHT22;12539;48.808;11.292;2023-06-14T09:55:11;22.90;42.10
24402;DHT22;12539;48.808;11.292;2023-06-14T09:57:37;23.00;43.20
24402;DHT22;12539;48.808;11.292;2023-06-14T10:00:03;23.00;42.80
24402;DHT22;12539;48.808;11.292;2023-06-14T10:02:35;23.10;42.80
24402;DHT22;12539;48.808;11.292;2023-06-14T10:05:03;23.10;43.10
24402;DHT22;12539;48.808;11.292;2023-06-14T10:07:53;23.20;42.50
24402;DHT22;12539;48.808;11.292;2023-06-14T10:10:17;23.20;42.20
24402;DHT22;12539;48.808;11.292;2023-06-14T10:12:42;23.20;41.60
24402;DHT22;12539;48.808;11.292;2023-06-14T10:15:08;23.20;41.50
24402;DHT22;12539;48.808;11.292;2023-06-14T10:17:39;23.20;41.50
24402;DHT22;12539;48.808;11.292;2023-06-14T10:20:19;23.20;41.80
24402;DHT22;12539;48.808;11.292;2023-06-14T10:23:01;23.20;40.20
24402;DHT22;12539;48.808;11.292;2023-06-14T10:25:28;23.30;40.70
24402;DHT22;12539;48.808;11.292;2023-06-14T10:28:03;23.40;41.10
24402;DHT22;12539;48.808;11.292;2023-06-14T10:30:29;23.60;39.30
24402;DHT22;12539;48.808;11.292;2023-06-14T10:33:04;23.70;38.90
24402;DHT22;12539;48.808;11.292;2023-06-14T10:35:31;23.80;39.60
24402;DHT22;12539;48.808;11.292;2023-06-14T10:38:05;24.00;39.80
24402;DHT22;12539;48.808;11.292;2023-06-14T10:40:31;24.10;38.90
24402;DHT22;12539;48.808;11.292;2023-06-14T10:42:57;24.10;38.90
24402;DHT22;12539;48.808;11.292;2023-06-14T10:45:22;24.00;37.20
24402;DHT22;12539;48.808;11.292;2023-06-14T10:47:48;23.90;38.40
24402;DHT22;12539;48.808;11.292;2023-06-14T10:50:17;23.80;39.10
24402;DHT22;12539;48.808;11.292;2023-06-14T10:52:44;23.60;39.10
24402;DHT22;12539;48.808;11.292;2023-06-14T10:55:11;23.60;40.00
24402;DHT22;12539;48.808;11.292;2023-06-14T10:57:38;23.40;39.90
24402;DHT22;12539;48.808;11.292;2023-06-14T11:00:07;23.30;40.40
24402;DHT22;12539;48.808;11.292;2023-06-14T11:05:16;23.20;40.80
24402;DHT22;12539;48.808;11.292;2023-06-14T11:07:58;23.30;39.80
24402;DHT22;12539;48.808;11.292;2023-06-14T11:12:58;23.40;39.80
24402;DHT22;12539;48.808;11.292;2023-06-14T11:15:28;23.50;39.50
24402;DHT22;12539;48.808;11.292;2023-06-14T11:17:53;23.70;39.20
24402;DHT22;12539;48.808;11.292;2023-06-14T11:20:24;23.80;38.40
24402;DHT22;12539;48.808;11.292;2023-06-14T11:22:51;24.00;39.20
24402;DHT22;12539;48.808;11.292;2023-06-14T11:25:17;24.20;38.60
24402;DHT22;12539;48.808;11.292;2023-06-14T11:27:43;24.40;37.50
24402;DHT22;12539;48.808;11.292;2023-06-14T11:30:08;24.60;37.00
24402;DHT22;12539;48.808;11.292;2023-06-14T11:32:35;24.90;36.70
24402;DHT22;12539;48.808;11.292;2023-06-14T11:35:01;25.10;36.20
24402;DHT22;12539;48.808;11.292;2023-06-14T11:37:27;25.30;36.90
24402;DHT22;12539;48.808;11.292;2023-06-14T11:39:57;25.50;35.40
24402;DHT22;12539;48.808;11.292;2023-06-14T11:42:23;25.60;35.50
24402;DHT22;12539;48.808;11.292;2023-06-14T11:44:49;25.70;35.90
24402;DHT22;12539;48.808;11.292;2023-06-14T11:47:15;25.60;36.40
24402;DHT22;12539;48.808;11.292;2023-06-14T11:49:40;25.60;37.00
24402;DHT22;12539;48.808;11.292;2023-06-14T11:52:07;25.50;37.20
24402;DHT22;12539;48.808;11.292;2023-06-14T11:54:32;25.30;37.60
24402;DHT22;12539;48.808;11.292;2023-06-14T11:56:58;25.20;37.70
24402;DHT22;12539;48.808;11.292;2023-06-14T11:59:24;25.10;37.80
24402;DHT22;12539;48.808;11.292;2023-06-14T12:01:50;25.00;38.10
24402;DHT22;12539;48.808;11.292;2023-06-14T12:04:23;24.90;38.30
24402;DHT22;12539;48.808;11.292;2023-06-14T12:06:48;24.80;38.50
24402;DHT22;12539;48.808;11.292;2023-06-14T12:09:15;24.70;38.80
24402;DHT22;12539;48.808;11.292;2023-06-14T12:11:43;24.70;39.20
24402;DHT22;12539;48.808;11.292;2023-06-14T12:14:09;24.70;38.70
24402;DHT22;12539;48.808;11.292;2023-06-14T12:16:36;24.70;39.30
24402;DHT22;12539;48.808;11.292;2023-06-14T12:19:12;24.80;39.00
24402;DHT22;12539;48.808;11.292;2023-06-14T12:21:38;24.80;39.30
24402;DHT22;12539;48.808;11.292;2023-06-14T12:24:06;24.80;39.40
24402;DHT22;12539;48.808;11.292;2023-06-14T12:26:32;24.90;39.20
24402;DHT22;12539;48.808;11.292;2023-06-14T12:28:58;24.90;39.00
24402;DHT22;12539;48.808;11.292;2023-06-14T12:31:23;24.90;39.30
24402;DHT22;12539;48.808;11.292;2023-06-14T12:33:49;24.90;39.20
24402;DHT22;12539;48.808;11.292;2023-06-14T12:36:15;25.00;39.00
24402;DHT22;12539;48.808;11.292;2023-06-14T12:38:41;25.10;39.10
24402;DHT22;12539;48.808;11.292;2023-06-14T12:43:52;25.30;39.70
24402;DHT22;12539;48.808;11.292;2023-06-14T12:46:17;25.30;39.20
24402;DHT22;12539;48.808;11.292;2023-06-14T12:48:43;25.30;39.90
24402;DHT22;12539;48.808;11.292;2023-06-14T12:51:09;25.20;38.90
24402;DHT22;12539;48.808;11.292;2023-06-14T12:53:36;25.10;39.40
24402;DHT22;12539;48.808;11.292;2023-06-14T12:56:02;25.00;39.10
24402;DHT22;12539;48.808;11.292;2023-06-14T12:58:28;24.90;39.20
24402;DHT22;12539;48.808;11.292;2023-06-14T13:00:53;24.80;39.80
24402;DHT22;12539;48.808;11.292;2023-06-14T13:03:19;24.70;39.60
24402;DHT22;12539;48.808;11.292;2023-06-14T13:05:44;24.60;39.30
24402;DHT22;12539;48.808;11.292;2023-06-14T13:10:55;24.40;39.70
24402;DHT22;12539;48.808;11.292;2023-06-14T13:13:21;24.30;39.90
24402;DHT22;12539;48.808;11.292;2023-06-14T13:15:46;24.20;39.60
24402;DHT22;12539;48.808;11.292;2023-06-14T13:18:12;24.20;39.70
24402;DHT22;12539;48.808;11.292;2023-06-14T13:23:25;24.30;40.30
24402;DHT22;12539;48.808;11.292;2023-06-14T13:25:50;24.20;40.20
24402;DHT22;12539;48.808;11.292;2023-06-14T13:28:16;24.30;40.20
24402;DHT22;12539;48.808;11.292;2023-06-14T13:30:42;24.30;40.10
24402;DHT22;12539;48.808;11.292;2023-06-14T13:35:52;24.60;40.20
24402;DHT22;12539;48.808;11.292;2023-06-14T13:38:18;24.90;39.90
24402;DHT22;12539;48.808;11.292;2023-06-14T13:40:43;25.10;39.40
24402;DHT22;12539;48.808;11.292;2023-06-14T13:43:09;25.30;38.00
24402;DHT22;12539;48.808;11.292;2023-06-14T13:45:35;25.50;37.70
24402;DHT22;12539;48.808;11.292;2023-06-14T13:48:01;25.70;37.90
24402;DHT22;12539;48.808;11.292;2023-06-14T13:50:26;25.90;37.50
24402;DHT22;12539;48.808;11.292;2023-06-14T13:52:52;25.90;36.00
24402;DHT22;12539;48.808;11.292;2023-06-14T13:55:17;25.90;35.50
24402;DHT22;12539;48.808;11.292;2023-06-14T13:57:43;25.90;35.90
24402;DHT22;12539;48.808;11.292;2023-06-14T14:00:08;25.90;36.00
24402;DHT22;12539;48.808;11.292;2023-06-14T14:02:34;25.80;35.20
24402;DHT22;12539;48.808;11.292;2023-06-14T14:05:00;25.70;35.80
24402;DHT22;12539;48.808;11.292;2023-06-14T14:07:25;25.50;35.40
24402;DHT22;12539;48.808;11.292;2023-06-14T14:09:51;25.50;36.20
24402;DHT22;12539;48.808;11.292;2023-06-14T14:12:18;25.50;36.20
24402;DHT22;12539;48.808;11.292;2023-06-14T14:14:44;25.50;36.70
24402;DHT22;12539;48.808;11.292;2023-06-14T14:17:09;25.40;36.70
24402;DHT22;12539;48.808;11.292;2023-06-14T14:19:35;25.30;35.90
24402;DHT22;12539;48.808;11.292;2023-06-14T14:22:01;25.30;36.80
24402;DHT22;12539;48.808;11.292;2023-06-14T14:24:27;25.30;36.60
24402;DHT22;12539;48.808;11.292;2023-06-14T14:26:52;25.30;37.00
24402;DHT22;12539;48.808;11.292;2023-06-14T14:29:19;25.20;36.70
24402;DHT22;12539;48.808;11.292;2023-06-14T14:31:44;25.20;36.60
24402;DHT22;12539;48.808;11.292;2023-06-14T14:34:12;25.20;36.50
24402;DHT22;12539;48.808;11.292;2023-06-14T14:36:38;25.10;36.40
24402;DHT22;12539;48.808;11.292;2023-06-14T14:39:08;25.00;37.00
24402;DHT22;12539;48.808;11.292;2023-06-14T14:41:34;24.90;37.40
24402;DHT22;12539;48.808;11.292;2023-06-14T14:43:59;24.70;37.60
24402;DHT22;12539;48.808;11.292;2023-06-14T14:46:26;24.60;38.40
24402;DHT22;12539;48.808;11.292;2023-06-14T14:48:52;24.60;38.90
24402;DHT22;12539;48.808;11.292;2023-06-14T14:51:17;24.50;39.00
24402;DHT22;12539;48.808;11.292;2023-06-14T14:53:43;24.40;39.10
24402;DHT22;12539;48.808;11.292;2023-06-14T14:56:08;24.50;39.30
24402;DHT22;12539;48.808;11.292;2023-06-14T15:03:39;24.30;40.20
24402;DHT22;12539;48.808;11.292;2023-06-14T15:06:05;24.30;40.70
24402;DHT22;12539;48.808;11.292;2023-06-14T15:08:30;24.20;40.20
24402;DHT22;12539;48.808;11.292;2023-06-14T15:10:56;24.10;39.50
24402;DHT22;12539;48.808;11.292;2023-06-14T15:13:21;24.10;39.80
24402;DHT22;12539;48.808;11.292;2023-06-14T15:15:48;24.10;40.20
24402;DHT22;12539;48.808;11.292;2023-06-14T15:18:13;24.10;40.20
24402;DHT22;12539;48.808;11.292;2023-06-14T15:20:40;24.10;40.90
24402;DHT22;12539;48.808;11.292;2023-06-14T15:23:06;24.20;39.80
24402;DHT22;12539;48.808;11.292;2023-06-14T15:25:32;24.20;40.10
24402;DHT22;12539;48.808;11.292;2023-06-14T15:27:58;24.20;38.80
24402;DHT22;12539;48.808;11.292;2023-06-14T15:30:24;24.20;38.40
24402;DHT22;12539;48.808;11.292;2023-06-14T15:32:49;24.20;38.00
24402;DHT22;12539;48.808;11.292;2023-06-14T15:35:16;24.30;37.90
24402;DHT22;12539;48.808;11.292;2023-06-14T15:37:43;24.30;38.80
24402;DHT22;12539;48.808;11.292;2023-06-14T15:40:08;24.30;39.50
24402;DHT22;12539;48.808;11.292;2023-06-14T15:42:34;24.20;39.50